Time;durP1;ratioP1;P1;durP2;ratioP2;P2;SDS_P1;SDS_P2;PMS_P1;PMS_P2;Temp;Humidity;BMP_temperature;BMP_pressure;BME280_temperature;BME280_humidity;BME280_pressure;Samples;Min_cycle;Max_cycle;Signal;HPM_P1;HPM_P2
2021/09/07 00:02:14;;;;;;;20.23;13.40;;;16.40;93.30;;;;;;5072767;28;20056;-66
2021/09/07 00:04:39;;;;;;;23.48;13.00;;;16.40;93.10;;;;;;5057680;28;20036;-67
2021/09/07 00:07:05;;;;;;;21.73;13.00;;;16.40;93.00;;;;;;5075352;28;20064;-67
2021/09/07 00:09:31;;;;;;;22.02;12.68;;;16.40;92.90;;;;;;5075335;28;20029;-67
2021/09/07 00:11:57;;;;;;;23.42;12.98;;;16.40;92.70;;;;;;5057275;28;20457;-68
2021/09/07 00:14:23;;;;;;;20.77;12.38;;;16.40;92.50;;;;;;5074017;28;20032;-66
2021/09/07 00:16:51;;;;;;;20.63;12.27;;;16.30;92.50;;;;;;5075195;28;20103;-68
2021/09/07 00:19:17;;;;;;;18.42;11.48;;;16.30;92.60;;;;;;5075096;28;20025;-67
2021/09/07 00:21:43;;;;;;;20.35;12.57;;;16.30;92.60;;;;;;5057189;28;20028;-67
2021/09/07 00:24:09;;;;;;;23.23;12.60;;;16.20;92.70;;;;;;5056994;28;20460;-68
2021/09/07 00:26:35;;;;;;;18.35;12.05;;;16.20;93.20;;;;;;5075012;28;20032;-68
2021/09/07 00:29:01;;;;;;;18.27;11.88;;;16.10;93.40;;;;;;5074621;28;20035;-68
2021/09/07 00:31:27;;;;;;;21.38;11.57;;;16.10;93.30;;;;;;5074920;28;20062;-68
2021/09/07 00:33:53;;;;;;;24.35;13.32;;;16.10;93.50;;;;;;5074800;28;20036;-69
2021/09/07 00:36:19;;;;;;;16.92;11.77;;;16.00;93.80;;;;;;5074678;28;20029;-69
2021/09/07 00:38:44;;;;;;;21.33;11.80;;;15.90;94.00;;;;;;5056717;28;20028;-67
2021/09/07 00:41:10;;;;;;;20.65;12.48;;;15.90;94.30;;;;;;5074450;28;20103;-68
2021/09/07 00:43:40;;;;;;;25.98;11.85;;;15.80;94.50;;;;;;5056730;28;20171;-67
2021/09/07 00:46:06;;;;;;;21.38;13.25;;;15.70;94.80;;;;;;5074571;28;20115;-66
2021/09/07 00:48:32;;;;;;;19.05;11.70;;;15.60;95.00;;;;;;5074530;28;20131;-68
2021/09/07 00:50:58;;;;;;;22.23;12.27;;;15.50;95.40;;;;;;5056533;28;20028;-65
2021/09/07 00:53:24;;;;;;;20.65;12.38;;;15.50;95.70;;;;;;5074425;28;20021;-69
2021/09/07 00:55:51;;;;;;;21.05;11.55;;;15.50;96.00;;;;;;5074305;28;20108;-70
2021/09/07 00:58:20;;;;;;;18.58;12.57;;;15.50;95.90;;;;;;5074005;28;20537;-69
2021/09/07 01:00:46;;;;;;;21.70;11.85;;;15.50;95.80;;;;;;5052726;28;20052;-69
2021/09/07 01:03:12;;;;;;;17.98;11.98;;;15.50;96.10;;;;;;5054364;28;20029;-70
2021/09/07 01:05:38;;;;;;;20.55;12.20;;;15.50;96.60;;;;;;5054503;28;20029;-70
2021/09/07 01:08:05;;;;;;;18.33;12.35;;;15.40;96.40;;;;;;5054488;28;20021;-69
2021/09/07 01:10:30;;;;;;;23.40;12.98;;;15.40;96.70;;;;;;5052899;28;20508;-68
2021/09/07 01:12:57;;;;;;;18.13;11.43;;;15.40;96.70;;;;;;5054117;28;20052;-70
2021/09/07 01:15:22;;;;;;;20.17;11.77;;;15.40;97.00;;;;;;5053968;28;20033;-67
2021/09/07 01:17:48;;;;;;;19.35;11.70;;;15.50;97.10;;;;;;5053993;28;20415;-68
2021/09/07 01:20:14;;;;;;;20.65;11.85;;;15.40;96.90;;;;;;5053949;28;20025;-68
2021/09/07 01:22:40;;;;;;;19.38;12.13;;;15.40;97.40;;;;;;5053946;28;20104;-69
2021/09/07 01:25:06;;;;;;;17.50;12.18;;;15.40;97.30;;;;;;5053630;28;20061;-68
2021/09/07 01:27:32;;;;;;;21.13;12.32;;;15.40;97.50;;;;;;5053743;28;20462;-68
2021/09/07 01:29:58;;;;;;;23.05;12.65;;;15.30;97.90;;;;;;5053735;28;20040;-68
2021/09/07 01:32:24;;;;;;;17.13;11.77;;;15.30;98.20;;;;;;5053958;28;20082;-68
2021/09/07 01:34:50;;;;;;;23.17;12.00;;;15.30;98.70;;;;;;5053634;28;20378;-68
2021/09/07 01:37:19;;;;;;;21.20;11.93;;;15.20;99.10;;;;;;5053687;28;20483;-68
2021/09/07 01:39:45;;;;;;;20.23;12.48;;;15.30;99.30;;;;;;5053637;28;20025;-68
2021/09/07 01:42:11;;;;;;;22.63;12.70;;;15.20;99.90;;;;;;5052329;28;20040;-68
2021/09/07 01:44:42;;;;;;;18.70;12.95;;;15.10;99.90;;;;;;5053555;28;20042;-68
2021/09/07 01:47:09;;;;;;;24.70;13.23;;;15.10;99.90;;;;;;5053797;28;20028;-69
2021/09/07 01:49:35;;;;;;;25.90;13.10;;;15.10;99.90;;;;;;5053138;28;20366;-68
2021/09/07 01:52:09;;;;;;;23.80;12.93;;;15.00;99.90;;;;;;5053502;28;20060;-68
2021/09/07 01:54:39;;;;;;;24.73;13.82;;;15.00;99.90;;;;;;5053353;28;20036;-68
2021/09/07 01:57:05;;;;;;;25.33;12.85;;;15.00;99.90;;;;;;5052080;28;20024;-68
2021/09/07 01:59:33;;;;;;;23.15;12.35;;;15.00;99.90;;;;;;5053294;28;20029;-68
2021/09/07 02:01:59;;;;;;;21.45;12.88;;;15.00;99.90;;;;;;5051560;28;20422;-69
2021/09/07 02:04:24;;;;;;;21.00;12.70;;;15.00;99.90;;;;;;5051944;28;20460;-67
2021/09/07 02:06:50;;;;;;;22.70;12.57;;;15.00;99.90;;;;;;5053233;28;20109;-68
2021/09/07 02:09:16;;;;;;;23.58;13.68;;;14.90;99.90;;;;;;5051613;28;20468;-71
2021/09/07 02:11:42;;;;;;;21.13;13.07;;;14.80;99.90;;;;;;5053165;28;20025;-67
2021/09/07 02:14:08;;;;;;;21.33;13.30;;;14.70;99.90;;;;;;5051813;28;20115;-67
2021/09/07 02:16:33;;;;;;;26.60;13.27;;;14.70;99.90;;;;;;5051621;28;20028;-67
2021/09/07 02:18:59;;;;;;;21.00;13.07;;;14.70;99.90;;;;;;5053030;28;20032;-67
2021/09/07 02:21:27;;;;;;;33.05;12.90;;;14.80;99.90;;;;;;5053040;28;20033;-67
2021/09/07 02:23:53;;;;;;;19.20;12.95;;;14.70;99.90;;;;;;5052789;28;20482;-67
2021/09/07 02:26:19;;;;;;;23.10;13.52;;;14.70;99.90;;;;;;5053263;28;20146;-67
2021/09/07 02:28:45;;;;;;;20.15;13.07;;;14.60;99.90;;;;;;5052923;28;20036;-66
2021/09/07 02:31:11;;;;;;;23.40;12.07;;;14.60;99.90;;;;;;5051613;28;20458;-68
2021/09/07 02:33:36;;;;;;;23.42;12.43;;;14.60;99.90;;;;;;5052911;28;20033;-68
2021/09/07 02:36:02;;;;;;;22.80;12.45;;;14.50;99.90;;;;;;5052579;28;20040;-68
2021/09/07 02:38:28;;;;;;;20.63;12.55;;;14.50;99.90;;;;;;5056653;28;20572;-66
2021/09/07 02:40:58;;;;;;;24.55;12.48;;;14.50;99.90;;;;;;5056770;28;20033;-67
2021/09/07 02:43:25;;;;;;;19.23;12.40;;;14.40;99.90;;;;;;5056977;28;20111;-66
2021/09/07 02:45:52;;;;;;;22.98;12.43;;;14.40;99.90;;;;;;5055591;28;20028;-66
2021/09/07 02:48:18;;;;;;;24.27;12.55;;;14.40;99.90;;;;;;5056826;28;20117;-67
2021/09/07 02:50:44;;;;;;;23.10;13.38;;;14.30;99.90;;;;;;5056785;28;20029;-71
2021/09/07 02:53:10;;;;;;;17.88;12.32;;;14.30;99.90;;;;;;5057124;28;20029;-69
2021/09/07 02:55:38;;;;;;;18.70;12.63;;;14.30;99.90;;;;;;5056629;28;20163;-70
2021/09/07 02:58:04;;;;;;;26.55;13.52;;;14.20;99.90;;;;;;5056668;28;20036;-69
2021/09/07 03:00:31;;;;;;;23.13;12.63;;;14.20;99.90;;;;;;5058066;28;20024;-67
2021/09/07 03:02:57;;;;;;;20.50;12.60;;;14.20;99.90;;;;;;5058588;28;20109;-69
2021/09/07 03:05:23;;;;;;;23.95;12.98;;;14.20;99.90;;;;;;5076495;28;20075;-71
2021/09/07 03:07:48;;;;;;;28.40;13.52;;;14.10;99.90;;;;;;5058445;28;20032;-68
2021/09/07 03:10:14;;;;;;;20.05;12.90;;;14.10;99.90;;;;;;5058376;28;20047;-68
2021/09/07 03:12:41;;;;;;;23.27;13.38;;;14.10;99.90;;;;;;5076413;28;20035;-67
2021/09/07 03:15:08;;;;;;;21.25;12.45;;;14.10;99.90;;;;;;5076246;28;20034;-67
2021/09/07 03:17:33;;;;;;;24.30;13.68;;;14.10;99.90;;;;;;5076219;28;20055;-70
2021/09/07 03:19:59;;;;;;;24.20;13.40;;;14.10;99.90;;;;;;5076198;28;20021;-68
2021/09/07 03:22:25;;;;;;;28.77;14.20;;;14.00;99.90;;;;;;5058285;28;20024;-68
2021/09/07 03:24:51;;;;;;;28.40;13.98;;;14.00;99.90;;;;;;5076121;28;20751;-69
2021/09/07 03:27:17;;;;;;;23.23;13.35;;;14.00;99.90;;;;;;5075870;28;20035;-68
2021/09/07 03:29:43;;;;;;;25.98;13.88;;;14.00;99.90;;;;;;5058018;28;20491;-66
2021/09/07 03:32:12;;;;;;;27.67;13.15;;;14.00;99.90;;;;;;5058011;28;20028;-67
2021/09/07 03:34:38;;;;;;;22.77;13.55;;;14.00;99.90;;;;;;5058011;28;20069;-68
2021/09/07 03:37:03;;;;;;;21.55;13.35;;;14.00;99.90;;;;;;5075632;28;20390;-68
2021/09/07 03:39:29;;;;;;;23.42;13.15;;;14.00;99.90;;;;;;5075850;28;20039;-68
2021/09/07 03:41:55;;;;;;;22.98;13.35;;;14.00;99.90;;;;;;5075800;28;20059;-68
2021/09/07 03:44:21;;;;;;;25.25;12.88;;;14.00;99.90;;;;;;5076103;28;20033;-68
2021/09/07 03:46:47;;;;;;;20.85;12.60;;;14.00;99.90;;;;;;5075732;28;20067;-67
2021/09/07 03:49:12;;;;;;;18.90;12.10;;;14.00;99.90;;;;;;5075620;28;20028;-66
2021/09/07 03:51:38;;;;;;;21.88;12.77;;;13.90;99.90;;;;;;5057671;28;20477;-67
2021/09/07 03:54:04;;;;;;;25.00;14.18;;;13.90;99.90;;;;;;5075637;28;20032;-67
2021/09/07 03:56:30;;;;;;;29.75;13.88;;;13.90;99.90;;;;;;5075554;28;20483;-67
2021/09/07 03:58:57;;;;;;;17.08;12.35;;;13.90;99.90;;;;;;5057580;28;20366;-69
2021/09/07 04:01:22;;;;;;;19.75;11.93;;;13.90;99.90;;;;;;5075141;28;20053;-68
2021/09/07 04:03:48;;;;;;;26.33;14.32;;;13.90;99.90;;;;;;5075388;28;20491;-68
2021/09/07 04:06:17;;;;;;;21.88;14.10;;;13.90;99.90;;;;;;5057348;28;20119;-69
2021/09/07 04:08:44;;;;;;;27.48;13.98;;;13.80;99.90;;;;;;5075043;28;20424;-68
2021/09/07 04:11:10;;;;;;;22.23;13.73;;;13.80;99.90;;;;;;5075319;28;20029;-70
2021/09/07 04:13:36;;;;;;;24.52;13.43;;;13.70;99.90;;;;;;5057251;28;20473;-67
2021/09/07 04:16:02;;;;;;;26.50;14.30;;;13.70;99.90;;;;;;5075113;28;20036;-68
2021/09/07 04:18:28;;;;;;;31.08;13.57;;;13.70;99.90;;;;;;5057147;28;20465;-67
2021/09/07 04:20:54;;;;;;;26.75;14.98;;;13.60;99.90;;;;;;5075130;28;20029;-70
2021/09/07 04:23:19;;;;;;;23.23;13.73;;;13.60;99.90;;;;;;5075089;28;20509;-70
2021/09/07 04:25:45;;;;;;;26.50;13.82;;;13.60;99.90;;;;;;5075032;28;20105;-70
2021/09/07 04:28:11;;;;;;;25.25;13.65;;;13.60;99.90;;;;;;5056948;28;20024;-69
2021/09/07 04:30:37;;;;;;;26.63;13.95;;;13.50;99.90;;;;;;5074977;28;20039;-70
2021/09/07 04:33:03;;;;;;;23.55;13.98;;;13.60;99.90;;;;;;5074910;28;20029;-70
2021/09/07 04:35:29;;;;;;;25.95;14.90;;;13.50;99.90;;;;;;5056729;28;20397;-71
2021/09/07 04:37:55;;;;;;;26.90;16.15;;;13.50;99.90;;;;;;5056783;28;20085;-72
2021/09/07 04:40:21;;;;;;;30.33;15.80;;;13.60;99.90;;;;;;5074709;28;20020;-71
2021/09/07 04:42:47;;;;;;;28.13;16.70;;;13.60;99.90;;;;;;5074733;28;20026;-71
2021/09/07 04:45:13;;;;;;;23.25;14.95;;;13.60;99.90;;;;;;5056578;28;20436;-68
2021/09/07 04:47:41;;;;;;;22.88;13.85;;;13.70;99.90;;;;;;5074585;28;20078;-71
2021/09/07 04:50:07;;;;;;;23.52;13.93;;;13.70;99.90;;;;;;5074530;28;20056;-70
2021/09/07 04:52:33;;;;;;;24.23;14.68;;;13.70;99.90;;;;;;5074425;28;20376;-69
2021/09/07 04:54:59;;;;;;;25.58;14.98;;;13.70;99.90;;;;;;5074346;28;20036;-69
2021/09/07 04:57:25;;;;;;;30.17;14.30;;;13.70;99.90;;;;;;5074343;28;20024;-70
2021/09/07 04:59:51;;;;;;;28.48;14.60;;;13.80;99.90;;;;;;5055759;28;20424;-67
2021/09/07 05:02:17;;;;;;;26.13;13.23;;;13.80;99.90;;;;;;5074367;28;20040;-70
2021/09/07 05:04:42;;;;;;;28.95;12.80;;;13.90;99.90;;;;;;5074257;28;20032;-69
2021/09/07 05:07:08;;;;;;;19.00;12.75;;;14.00;99.90;;;;;;5056418;28;20400;-68
2021/09/07 05:09:34;;;;;;;30.45;13.18;;;14.00;99.90;;;;;;5074312;28;20044;-70
2021/09/07 05:12:00;;;;;;;25.08;13.35;;;14.10;99.90;;;;;;5073766;28;20035;-65
2021/09/07 05:14:26;;;;;;;20.52;13.68;;;14.10;99.90;;;;;;5073997;28;20085;-67
2021/09/07 05:16:51;;;;;;;20.27;13.55;;;14.20;99.90;;;;;;5055976;28;20059;-67
2021/09/07 05:19:17;;;;;;;23.30;12.63;;;14.20;99.90;;;;;;5073801;28;20073;-66
2021/09/07 05:21:43;;;;;;;23.48;12.73;;;14.20;99.90;;;;;;5073743;28;20028;-65
2021/09/07 05:24:09;;;;;;;21.95;11.70;;;14.20;99.90;;;;;;5055658;28;20485;-65
2021/09/07 05:26:36;;;;;;;27.55;12.82;;;14.30;99.90;;;;;;5073675;28;20115;-65
2021/09/07 05:29:01;;;;;;;22.38;12.35;;;14.40;99.90;;;;;;5073965;28;20067;-67
2021/09/07 05:31:27;;;;;;;18.95;12.77;;;14.40;99.90;;;;;;5073740;28;20052;-67
2021/09/07 05:33:53;;;;;;;23.20;12.88;;;14.50;99.90;;;;;;5073385;28;20495;-66
2021/09/07 05:36:19;;;;;;;26.08;11.90;;;14.60;99.90;;;;;;5073483;28;20101;-65
2021/09/07 05:38:45;;;;;;;20.20;12.32;;;14.60;99.90;;;;;;5073480;28;20056;-65
2021/09/07 05:41:11;;;;;;;31.08;12.32;;;14.70;99.90;;;;;;5073509;28;20461;-65
2021/09/07 05:43:37;;;;;;;20.20;12.13;;;14.70;99.90;;;;;;5073488;28;20043;-65
2021/09/07 05:46:03;;;;;;;24.63;12.98;;;14.80;99.90;;;;;;5073421;28;20029;-65
2021/09/07 05:48:29;;;;;;;29.63;12.50;;;14.80;99.90;;;;;;5072974;28;20025;-65
2021/09/07 05:50:54;;;;;;;34.70;13.52;;;14.90;99.90;;;;;;5073329;28;20025;-65
2021/09/07 05:53:20;;;;;;;29.27;13.20;;;14.90;99.90;;;;;;5054336;28;20024;-64
2021/09/07 05:55:46;;;;;;;28.60;12.95;;;15.00;99.90;;;;;;5054226;28;20036;-66
2021/09/07 05:58:12;;;;;;;26.08;12.75;;;15.00;99.90;;;;;;5072962;28;20021;-65
2021/09/07 06:00:38;;;;;;;28.83;12.88;;;15.10;99.90;;;;;;5072832;28;20334;-66
2021/09/07 06:03:08;;;;;;;21.88;11.77;;;15.20;99.90;;;;;;5072888;28;20040;-66
2021/09/07 06:05:35;;;;;;;18.80;12.02;;;15.20;99.90;;;;;;5055253;28;20068;-66
2021/09/07 06:08:01;;;;;;;25.48;11.93;;;15.40;99.90;;;;;;5073081;28;20051;-66
2021/09/07 06:10:27;;;;;;;24.42;12.82;;;15.40;99.90;;;;;;5073041;28;20024;-65
2021/09/07 06:12:53;;;;;;;28.05;16.30;;;15.50;99.90;;;;;;5072285;28;20035;-66
2021/09/07 06:15:19;;;;;;;40.25;29.45;;;15.60;99.90;;;;;;5054028;28;20036;-65
2021/09/07 06:17:45;;;;;;;28.27;17.05;;;15.70;99.90;;;;;;5073028;28;20077;-67
2021/09/07 06:20:11;;;;;;;20.00;12.35;;;15.70;99.90;;;;;;5073018;28;20077;-67
2021/09/07 06:22:37;;;;;;;20.88;12.40;;;15.80;99.90;;;;;;5072952;28;20421;-67
2021/09/07 06:25:04;;;;;;;20.20;11.05;;;15.90;99.90;;;;;;5073051;28;20031;-67
2021/09/07 06:27:30;;;;;;;25.38;11.35;;;16.00;99.90;;;;;;5072922;28;20161;-66
2021/09/07 06:29:56;;;;;;;18.98;11.30;;;16.00;99.90;;;;;;5072601;28;20432;-66
2021/09/07 06:32:22;;;;;;;19.27;11.18;;;16.10;99.90;;;;;;5072629;28;20111;-67
2021/09/07 06:34:48;;;;;;;30.05;11.40;;;;;;;;;;5072805;28;20112;-67
2021/09/07 06:37:14;;;;;;;17.98;10.60;;;16.20;99.90;;;;;;5072482;28;20388;-66
2021/09/07 06:39:40;;;;;;;17.20;10.23;;;16.40;99.90;;;;;;5072833;28;20025;-68
2021/09/07 06:42:06;;;;;;;18.20;10.10;;;16.40;99.80;;;;;;5072476;28;20028;-67
2021/09/07 06:44:32;;;;;;;16.45;9.77;;;16.50;99.50;;;;;;5072436;28;20078;-67
2021/09/07 06:46:58;;;;;;;16.95;9.15;;;16.60;98.60;;;;;;5072746;28;20031;-67
2021/09/07 06:49:24;;;;;;;15.13;8.82;;;16.70;97.80;;;;;;5072671;28;20385;-67
2021/09/07 06:51:50;;;;;;;20.63;9.23;;;16.80;97.20;;;;;;5072684;28;20099;-68
2021/09/07 06:54:15;;;;;;;17.58;8.15;;;16.90;96.10;;;;;;5054657;28;20493;-67
2021/09/07 06:56:41;;;;;;;17.48;8.88;;;16.90;95.10;;;;;;5054322;28;20044;-67
2021/09/07 06:59:07;;;;;;;23.33;8.82;;;17.00;95.40;;;;;;5072299;28;20051;-67
2021/09/07 07:01:33;;;;;;;15.88;8.43;;;17.10;95.20;;;;;;5072228;28;20139;-68
2021/09/07 07:03:59;;;;;;;17.33;9.70;;;17.30;95.20;;;;;;5054493;28;20381;-67
2021/09/07 07:06:25;;;;;;;14.85;8.48;;;17.40;95.60;;;;;;5072801;28;20035;-67
2021/09/07 07:08:51;;;;;;;17.02;8.00;;;17.50;94.20;;;;;;5072369;28;20016;-67
2021/09/07 07:11:17;;;;;;;22.70;8.27;;;17.60;93.60;;;;;;5072385;28;20036;-68
2021/09/07 07:13:43;;;;;;;15.13;8.18;;;17.70;94.20;;;;;;5054394;28;20032;-68
2021/09/07 07:16:09;;;;;;;22.38;7.80;;;17.80;93.60;;;;;;5072376;28;20037;-67
2021/09/07 07:18:34;;;;;;;32.65;10.55;;;17.90;93.40;;;;;;5054177;28;20504;-67
2021/09/07 07:21:00;;;;;;;22.02;9.00;;;18.10;99.90;;;;;;5072238;28;20184;-68
2021/09/07 07:23:26;;;;;;;20.83;8.07;;;18.10;93.00;;;;;;5074163;28;20052;-67
2021/09/07 07:25:52;;;;;;;19.45;7.30;;;;;;;;;;5058167;28;20115;-69
2021/09/07 07:28:18;;;;;;;25.27;7.88;;;18.50;99.90;;;;;;5076037;28;20032;-72
2021/09/07 07:30:44;;;;;;;20.55;7.45;;;18.50;91.10;;;;;;5076018;28;20032;-68
2021/09/07 07:33:10;;;;;;;37.92;10.95;;;18.70;91.00;;;;;;5076137;28;20036;-71
2021/09/07 07:35:36;;;;;;;15.05;6.07;;;18.80;91.30;;;;;;5075327;28;20484;-69
2021/09/07 07:38:03;;;;;;;19.52;6.68;;;18.90;88.30;;;;;;5075556;28;20032;-69
2021/09/07 07:40:28;;;;;;;12.95;6.93;;;19.00;91.60;;;;;;5075778;28;20377;-69
2021/09/07 07:42:54;;;;;;;13.32;6.57;;;19.20;89.30;;;;;;5057765;28;20024;-70
2021/09/07 07:45:20;;;;;;;11.07;6.55;;;19.30;89.10;;;;;;5075767;28;20029;-70
2021/09/07 07:47:46;;;;;;;16.80;5.93;;;19.40;88.10;;;;;;5075459;28;20020;-69
2021/09/07 07:50:12;;;;;;;13.65;6.43;;;19.50;86.90;;;;;;5073746;28;20055;-71
2021/09/07 07:52:38;;;;;;;10.93;5.90;;;19.70;87.90;;;;;;5074162;28;20025;-70
2021/09/07 07:55:04;;;;;;;20.50;5.70;;;19.80;85.90;;;;;;5074566;28;20472;-69
2021/09/07 08:00:52;;;;;;;13.38;6.07;;;20.10;84.00;;;;;;5075254;28;20055;-68
2021/09/07 08:03:18;;;;;;;21.98;6.15;;;20.30;84.50;;;;;;5074879;28;20488;-70
2021/09/07 08:05:44;;;;;;;11.55;5.90;;;20.50;84.40;;;;;;5074573;28;20025;-70
2021/09/07 08:08:10;;;;;;;17.70;8.52;;;20.60;81.70;;;;;;5057186;28;20389;-69
2021/09/07 08:10:38;;;;;;;15.38;6.43;;;20.70;82.60;;;;;;5074841;28;20107;-69
2021/09/07 08:13:04;;;;;;;13.88;6.03;;;20.90;82.70;;;;;;5056863;28;20028;-70
2021/09/07 08:15:29;;;;;;;11.98;5.95;;;21.10;82.00;;;;;;5057016;28;20039;-70
2021/09/07 08:17:56;;;;;;;12.45;5.65;;;21.30;81.30;;;;;;5056958;28;20052;-70
2021/09/07 08:20:21;;;;;;;15.90;5.82;;;21.40;80.60;;;;;;5075030;28;20029;-70
2021/09/07 08:22:48;;;;;;;10.70;5.82;;;;;;;;;;5075302;28;20028;-69
2021/09/07 08:25:14;;;;;;;17.05;6.75;;;;;;;;;;5074940;28;20032;-71
2021/09/07 08:27:40;;;;;;;12.27;6.32;;;22.10;99.80;;;;;;5075235;28;20504;-71
2021/09/07 08:30:07;;;;;;;14.70;5.75;;;22.20;78.70;;;;;;5056760;28;20465;-70
2021/09/07 08:32:33;;;;;;;13.85;5.57;;;22.30;77.00;;;;;;5074875;28;20024;-71
2021/09/07 08:34:58;;;;;;;14.02;5.63;;;22.40;75.70;;;;;;5073837;28;20041;-71
2021/09/07 08:37:25;;;;;;;11.70;5.60;;;;;;;;;;5074997;28;20481;-72
2021/09/07 08:39:50;;;;;;;10.20;4.88;;;22.70;74.40;;;;;;5074398;28;20430;-70
2021/09/07 08:42:16;;;;;;;11.30;5.90;;;22.80;74.10;;;;;;5056584;28;20067;-70
2021/09/07 08:44:46;;;;;;;9.65;5.25;;;23.00;74.60;;;;;;5074596;28;20454;-71
2021/09/07 08:47:17;;;;;;;14.82;5.28;;;23.10;72.30;;;;;;5074570;28;20519;-71
2021/09/07 08:49:45;;;;;;;9.25;5.28;;;23.20;72.20;;;;;;5056463;28;20028;-71
2021/09/07 08:52:14;;;;;;;12.45;5.32;;;23.40;72.50;;;;;;5074438;28;20025;-71
2021/09/07 08:54:40;;;;;;;14.27;6.18;;;23.60;71.30;;;;;;5074188;28;20063;-71
2021/09/07 08:57:07;;;;;;;12.82;5.55;;;;;;;;;;5074320;28;20078;-69
2021/09/07 08:59:33;;;;;;;13.52;5.75;;;23.60;71.30;;;;;;5074289;28;20406;-69
2021/09/07 09:02:14;;;;;;;17.08;5.63;;;24.10;69.60;;;;;;5055892;28;20063;-71
2021/09/07 09:04:43;;;;;;;14.70;5.38;;;24.30;69.60;;;;;;5074284;28;20107;-69
2021/09/07 09:07:19;;;;;;;7.80;5.00;;;24.50;69.10;;;;;;5056065;28;20459;-69
2021/09/07 09:09:45;;;;;;;10.65;5.07;;;24.60;66.60;;;;;;5074250;28;20025;-69
2021/09/07 09:12:11;;;;;;;11.18;4.78;;;24.80;68.00;;;;;;5073743;28;20374;-70
2021/09/07 09:14:46;;;;;;;15.10;5.32;;;24.90;67.40;;;;;;5073973;28;20028;-69
2021/09/07 09:17:18;;;;;;;11.52;5.22;;;25.10;68.00;;;;;;5074046;28;20024;-70
2021/09/07 09:20:07;;;;;;;11.73;6.00;;;25.20;65.80;;;;;;5055663;28;20028;-68
2021/09/07 09:22:52;;;;;;;13.55;5.78;;;25.30;65.80;;;;;;5055945;28;20028;-69
2021/09/07 09:25:22;;;;;;;7.90;5.20;;;25.50;66.80;;;;;;5073857;28;20020;-71
2021/09/07 09:28:19;;;;;;;15.52;5.50;;;25.60;64.20;;;;;;5073672;28;20111;-68
2021/09/07 09:30:56;;;;;;;7.55;5.25;;;25.80;63.40;;;;;;5073752;28;20024;-69
2021/09/07 09:33:28;;;;;;;11.40;4.88;;;25.90;63.60;;;;;;5073617;28;20016;-72
2021/09/07 09:36:02;;;;;;;13.75;5.70;;;26.10;63.00;;;;;;5055586;28;20036;-69
2021/09/07 09:38:33;;;;;;;10.30;5.53;;;26.10;62.30;;;;;;5073562;28;20020;-72
2021/09/07 09:41:04;;;;;;;11.98;4.35;;;26.30;62.40;;;;;;5073594;28;20486;-69
2021/09/07 09:43:42;;;;;;;8.27;4.82;;;26.30;60.50;;;;;;5073573;28;20465;-69
2021/09/07 09:46:26;;;;;;;7.15;4.75;;;26.60;60.90;;;;;;5073426;28;20036;-70
2021/09/07 09:48:54;;;;;;;11.38;5.10;;;26.80;60.20;;;;;;5072696;28;20032;-69
2021/09/07 09:51:21;;;;;;;18.70;5.78;;;27.00;61.00;;;;;;5069490;28;20469;-70
2021/09/07 09:53:50;;;;;;;12.70;4.88;;;27.10;60.20;;;;;;5073164;28;20020;-67
2021/09/07 09:56:17;;;;;;;8.75;5.30;;;27.20;59.10;;;;;;5054882;28;20044;-70
2021/09/07 09:58:44;;;;;;;9.98;4.72;;;27.40;57.30;;;;;;5073355;28;20028;-70
2021/09/07 10:01:10;;;;;;;11.75;4.72;;;27.50;58.20;;;;;;5072873;28;20048;-71
2021/09/07 10:03:40;;;;;;;9.07;4.60;;;27.60;58.60;;;;;;5073194;28;20480;-71
2021/09/07 10:06:06;;;;;;;10.82;4.82;;;27.70;57.50;;;;;;5073164;28;20385;-71
2021/09/07 10:08:33;;;;;;;7.90;4.28;;;27.90;56.60;;;;;;5073116;28;20496;-71
2021/09/07 10:11:06;;;;;;;9.82;4.32;;;27.80;54.80;;;;;;5073183;28;20377;-71
2021/09/07 10:13:35;;;;;;;8.20;4.35;;;28.10;57.70;;;;;;5072897;28;20031;-73
2021/09/07 10:16:07;;;;;;;8.82;4.20;;;28.40;55.20;;;;;;5072717;28;20489;-70
2021/09/07 10:26:40;;;;;;;8.80;4.45;;;29.80;53.70;;;;;;5072835;28;20056;-71
2021/09/07 10:29:06;;;;;;;10.05;4.53;;;30.40;51.90;;;;;;5072511;28;20383;-70
2021/09/07 10:31:40;;;;;;;8.15;4.35;;;30.90;50.20;;;;;;5054799;28;20119;-70
2021/09/07 10:34:06;;;;;;;8.48;4.00;;;31.40;48.50;;;;;;5054829;28;20027;-69
2021/09/07 10:36:36;;;;;;;8.65;4.38;;;;;;;;;;5054808;28;20078;-71
2021/09/07 10:39:04;;;;;;;14.27;4.30;;;31.90;48.10;;;;;;5072736;28;20123;-71
2021/09/07 10:41:30;;;;;;;9.07;3.50;;;;;;;;;;5072602;28;20028;-75
2021/09/07 10:43:57;;;;;;;8.95;4.07;;;;;;;;;;5054443;28;20032;-70
2021/09/07 10:46:46;;;;;;;16.77;4.50;;;33.30;48.30;;;;;;5073028;28;20132;-76
2021/09/07 10:49:22;;;;;;;7.30;4.53;;;34.90;46.60;;;;;;5072425;28;20469;-72
2021/09/07 10:52:11;;;;;;;10.63;4.53;;;35.20;43.80;;;;;;5054545;28;20021;-72
2021/09/07 10:54:53;;;;;;;9.32;4.43;;;35.40;43.80;;;;;;5072451;28;20031;-72
2021/09/07 10:57:38;;;;;;;7.80;4.20;;;35.80;42.60;;;;;;5054787;28;20461;-71
2021/09/07 11:00:16;;;;;;;7.25;3.85;;;36.40;41.80;;;;;;5076572;28;20028;-71
2021/09/07 11:02:53;;;;;;;6.13;4.22;;;36.80;40.80;;;;;;5076683;28;20053;-74
2021/09/07 11:05:38;;;;;;;8.07;3.90;;;36.90;41.00;;;;;;5076417;28;20024;-71
2021/09/07 11:08:07;;;;;;;5.80;3.63;;;37.60;40.10;;;;;;5076389;28;20028;-72
2021/09/07 11:10:55;;;;;;;9.00;4.28;;;38.10;40.20;;;;;;5076376;28;20103;-71
2021/09/07 11:13:26;;;;;;;9.73;4.38;;;38.60;39.50;;;;;;5076428;28;20048;-72
2021/09/07 11:15:55;;;;;;;6.18;3.95;;;38.70;38.10;;;;;;5076275;28;20540;-72
2021/09/07 11:18:31;;;;;;;8.57;4.07;;;39.40;40.40;;;;;;5076269;28;20082;-72
2021/09/07 11:21:00;;;;;;;9.52;3.95;;;39.30;37.60;;;;;;5075983;28;20028;-72
2021/09/07 11:23:34;;;;;;;6.50;3.80;;;39.80;37.20;;;;;;5057820;28;20060;-73
2021/09/07 11:26:05;;;;;;;9.48;4.25;;;;;;;;;;5058244;28;20412;-73
2021/09/07 11:28:33;;;;;;;7.18;4.15;;;40.10;36.90;;;;;;5076222;28;20020;-71
2021/09/07 11:31:00;;;;;;;6.72;4.45;;;40.60;38.00;;;;;;5058045;28;20032;-71
2021/09/07 11:33:35;;;;;;;4.20;3.78;;;;;;;;;;5076001;28;20142;-71
2021/09/07 11:36:04;;;;;;;8.15;3.60;;;40.80;37.10;;;;;;5075826;28;20036;-73
2021/09/07 11:38:32;;;;;;;6.55;3.63;;;41.00;36.70;;;;;;5075949;28;20077;-72
2021/09/07 11:41:00;;;;;;;10.30;4.07;;;;;;;;;;5057463;28;20024;-73
2021/09/07 11:44:04;;;;;;;10.88;4.57;;;;;;;;;;5076064;28;20023;-73
2021/09/07 11:46:35;;;;;;;6.45;4.40;;;;;;;;;;4974622;28;20076;-73
2021/09/07 11:49:12;;;;;;;7.25;4.63;;;41.40;35.40;;;;;;4974653;28;20031;-71
2021/09/07 11:51:45;;;;;;;8.00;4.30;;;41.90;36.00;;;;;;4974450;28;20062;-73
2021/09/07 11:54:15;;;;;;;5.28;4.05;;;42.10;36.00;;;;;;4974566;28;20147;-71
2021/09/07 11:56:41;;;;;;;10.02;4.05;;;42.00;34.70;;;;;;4958247;28;20053;-73
2021/09/07 11:59:18;;;;;;;10.02;5.03;;;42.40;34.90;;;;;;4974428;28;20464;-74
2021/09/07 12:01:51;;;;;;;6.00;4.05;;;42.80;34.70;;;;;;5044398;28;20052;-74
2021/09/07 12:04:19;;;;;;;6.53;3.53;;;42.50;34.80;;;;;;5077531;28;20456;-75
2021/09/07 12:06:48;;;;;;;7.47;3.95;;;42.70;34.80;;;;;;5095907;28;20036;-70
2021/09/07 12:09:30;;;;;;;4.07;3.30;;;42.90;33.70;;;;;;5094338;28;20052;-68
2021/09/07 12:12:10;;;;;;;7.15;3.72;;;43.00;33.40;;;;;;5095579;28;20597;-71
2021/09/07 12:14:44;;;;;;;10.05;6.45;;;43.10;33.70;;;;;;5095736;28;20024;-71
2021/09/07 12:17:15;;;;;;;6.47;3.80;;;43.40;35.10;;;;;;5095665;28;20040;-70
2021/09/07 12:19:42;;;;;;;;;;;43.60;33.50;;;;;;5095564;28;20455;-71
2021/09/07 12:22:14;;;;;;;11.45;7.00;;;43.80;33.00;;;;;;5095328;28;19907;-70
2021/09/07 12:24:56;;;;;;;9.75;5.10;;;44.00;34.10;;;;;;5095309;28;20028;-69
2021/09/07 12:27:24;;;;;;;8.60;4.10;;;44.30;33.50;;;;;;5094952;28;20027;-70
2021/09/07 12:30:06;;;;;;;5.13;3.35;;;44.30;33.30;;;;;;5076939;28;20053;-70
2021/09/07 12:32:53;;;;;;;7.22;3.85;;;44.60;33.60;;;;;;5095074;28;20078;-70
2021/09/07 12:35:29;;;;;;;9.30;4.00;;;44.30;33.40;;;;;;5076943;28;20086;-72
2021/09/07 12:37:59;;;;;;;6.72;3.53;;;44.30;33.90;;;;;;5076808;28;20074;-73
2021/09/07 12:40:26;;;;;;;8.60;5.05;;;44.30;33.20;;;;;;5095004;28;20028;-72
2021/09/07 12:42:51;;;;;;;4.95;3.45;;;44.60;33.20;;;;;;5076675;28;20039;-74
2021/09/07 12:45:17;;;;;;;10.95;4.32;;;44.60;33.20;;;;;;5094663;28;20032;-73
2021/09/07 12:47:43;;;;;;;10.48;4.00;;;44.60;33.20;;;;;;5094633;28;20369;-70
2021/09/07 12:50:09;;;;;;;5.53;4.22;;;45.00;33.40;;;;;;5076512;28;20483;-72
2021/09/07 12:52:35;;;;;;;5.47;3.42;;;45.00;32.80;;;;;;5076810;28;20377;-72
2021/09/07 12:55:01;;;;;;;9.07;4.22;;;45.40;32.80;;;;;;5093490;28;20031;-72